sensor_id;sensor_type;location;lat;lon;timestamp;P1;durP1;ratioP1;P2;durP2;ratioP2
44746;SDS011;30472;49.490;10.972;2023-04-25T00:01:36;6.23;;;5.57;;
44746;SDS011;30472;49.490;10.972;2023-04-25T00:04:02;5.47;;;4.97;;
44746;SDS011;30472;49.490;10.972;2023-04-25T00:06:28;5.30;;;4.90;;
44746;SDS011;30472;49.490;10.972;2023-04-25T00:08:56;5.27;;;4.77;;
44746;SDS011;30472;49.490;10.972;2023-04-25T00:11:22;5.53;;;5.03;;
44746;SDS011;30472;49.490;10.972;2023-04-25T00:13:48;5.37;;;4.87;;
44746;SDS011;30472;49.490;10.972;2023-04-25T00:16:15;5.60;;;5.10;;
44746;SDS011;30472;49.490;10.972;2023-04-25T00:18:41;5.87;;;5.27;;
44746;SDS011;30472;49.490;10.972;2023-04-25T00:21:07;5.43;;;4.90;;
44746;SDS011;30472;49.490;10.972;2023-04-25T00:23:33;6.43;;;5.70;;
44746;SDS011;30472;49.490;10.972;2023-04-25T00:26:01;5.67;;;5.17;;
44746;SDS011;30472;49.490;10.972;2023-04-25T00:28:27;6.07;;;5.57;;
44746;SDS011;30472;49.490;10.972;2023-04-25T00:30:53;4.93;;;4.43;;
44746;SDS011;30472;49.490;10.972;2023-04-25T00:33:19;5.43;;;4.93;;
44746;SDS011;30472;49.490;10.972;2023-04-25T00:35:44;5.60;;;5.20;;
44746;SDS011;30472;49.490;10.972;2023-04-25T00:38:10;5.60;;;5.10;;
44746;SDS011;30472;49.490;10.972;2023-04-25T00:40:35;5.40;;;4.97;;
44746;SDS011;30472;49.490;10.972;2023-04-25T00:43:01;5.60;;;5.17;;
44746;SDS011;30472;49.490;10.972;2023-04-25T00:45:27;4.17;;;3.87;;
44746;SDS011;30472;49.490;10.972;2023-04-25T00:47:56;5.80;;;5.27;;
44746;SDS011;30472;49.490;10.972;2023-04-25T00:50:22;5.53;;;5.10;;
44746;SDS011;30472;49.490;10.972;2023-04-25T00:52:48;5.53;;;4.77;;
44746;SDS011;30472;49.490;10.972;2023-04-25T00:55:14;6.13;;;5.27;;
44746;SDS011;30472;49.490;10.972;2023-04-25T00:57:40;5.43;;;5.03;;
44746;SDS011;30472;49.490;10.972;2023-04-25T01:00:07;5.97;;;5.33;;
44746;SDS011;30472;49.490;10.972;2023-04-25T01:02:34;6.37;;;4.73;;
44746;SDS011;30472;49.490;10.972;2023-04-25T01:05:01;5.33;;;4.93;;
44746;SDS011;30472;49.490;10.972;2023-04-25T01:07:27;5.13;;;4.73;;
44746;SDS011;30472;49.490;10.972;2023-04-25T01:09:53;4.80;;;4.40;;
44746;SDS011;30472;49.490;10.972;2023-04-25T01:12:18;4.97;;;4.57;;
44746;SDS011;30472;49.490;10.972;2023-04-25T01:14:44;5.57;;;4.23;;
44746;SDS011;30472;49.490;10.972;2023-04-25T01:17:11;4.20;;;3.80;;
44746;SDS011;30472;49.490;10.972;2023-04-25T01:19:37;4.77;;;3.70;;
44746;SDS011;30472;49.490;10.972;2023-04-25T01:22:02;4.97;;;4.57;;
44746;SDS011;30472;49.490;10.972;2023-04-25T01:24:29;4.73;;;4.33;;
44746;SDS011;30472;49.490;10.972;2023-04-25T01:26:56;4.57;;;4.27;;
44746;SDS011;30472;49.490;10.972;2023-04-25T01:29:23;5.23;;;4.83;;
44746;SDS011;30472;49.490;10.972;2023-04-25T01:31:49;4.23;;;3.83;;
44746;SDS011;30472;49.490;10.972;2023-04-25T01:34:17;5.10;;;4.63;;
44746;SDS011;30472;49.490;10.972;2023-04-25T01:36:43;3.93;;;3.63;;
44746;SDS011;30472;49.490;10.972;2023-04-25T01:39:09;4.77;;;4.37;;
44746;SDS011;30472;49.490;10.972;2023-04-25T01:41:34;5.47;;;4.97;;
44746;SDS011;30472;49.490;10.972;2023-04-25T01:44:00;4.97;;;4.50;;
44746;SDS011;30472;49.490;10.972;2023-04-25T01:46:27;6.03;;;5.53;;
44746;SDS011;30472;49.490;10.972;2023-04-25T01:48:53;6.13;;;5.40;;
44746;SDS011;30472;49.490;10.972;2023-04-25T01:51:18;4.53;;;4.13;;
44746;SDS011;30472;49.490;10.972;2023-04-25T01:53:44;4.17;;;3.87;;
44746;SDS011;30472;49.490;10.972;2023-04-25T01:56:10;5.00;;;4.70;;
44746;SDS011;30472;49.490;10.972;2023-04-25T01:58:35;5.20;;;4.80;;
44746;SDS011;30472;49.490;10.972;2023-04-25T02:01:01;5.33;;;4.93;;
44746;SDS011;30472;49.490;10.972;2023-04-25T02:03:27;6.03;;;5.17;;
44746;SDS011;30472;49.490;10.972;2023-04-25T02:05:52;5.73;;;5.10;;
44746;SDS011;30472;49.490;10.972;2023-04-25T02:08:18;5.60;;;5.10;;
44746;SDS011;30472;49.490;10.972;2023-04-25T02:10:43;5.73;;;5.10;;
44746;SDS011;30472;49.490;10.972;2023-04-25T02:13:09;5.70;;;5.20;;
44746;SDS011;30472;49.490;10.972;2023-04-25T02:15:35;5.43;;;4.97;;
44746;SDS011;30472;49.490;10.972;2023-04-25T02:18:01;5.63;;;5.13;;
44746;SDS011;30472;49.490;10.972;2023-04-25T02:20:27;5.37;;;4.87;;
44746;SDS011;30472;49.490;10.972;2023-04-25T02:22:53;5.20;;;4.70;;
44746;SDS011;30472;49.490;10.972;2023-04-25T02:25:19;5.50;;;5.10;;
44746;SDS011;30472;49.490;10.972;2023-04-25T02:27:46;5.57;;;5.10;;
44746;SDS011;30472;49.490;10.972;2023-04-25T02:30:12;5.33;;;4.83;;
44746;SDS011;30472;49.490;10.972;2023-04-25T02:32:38;5.80;;;5.20;;
44746;SDS011;30472;49.490;10.972;2023-04-25T02:35:04;6.10;;;5.60;;
44746;SDS011;30472;49.490;10.972;2023-04-25T02:37:31;6.13;;;5.63;;
44746;SDS011;30472;49.490;10.972;2023-04-25T02:39:57;5.83;;;5.23;;
44746;SDS011;30472;49.490;10.972;2023-04-25T02:42:23;6.13;;;5.53;;
44746;SDS011;30472;49.490;10.972;2023-04-25T02:44:48;5.90;;;5.40;;
44746;SDS011;30472;49.490;10.972;2023-04-25T02:47:14;5.47;;;4.77;;
44746;SDS011;30472;49.490;10.972;2023-04-25T02:49:40;5.57;;;5.07;;
44746;SDS011;30472;49.490;10.972;2023-04-25T02:52:05;6.90;;;5.07;;
44746;SDS011;30472;49.490;10.972;2023-04-25T02:54:31;6.20;;;5.60;;
44746;SDS011;30472;49.490;10.972;2023-04-25T02:56:57;7.20;;;6.37;;
44746;SDS011;30472;49.490;10.972;2023-04-25T02:59:22;7.57;;;6.77;;
44746;SDS011;30472;49.490;10.972;2023-04-25T03:01:48;6.23;;;5.73;;
44746;SDS011;30472;49.490;10.972;2023-04-25T03:04:14;6.83;;;5.67;;
44746;SDS011;30472;49.490;10.972;2023-04-25T03:06:39;7.03;;;5.87;;
44746;SDS011;30472;49.490;10.972;2023-04-25T03:09:05;7.90;;;6.60;;
44746;SDS011;30472;49.490;10.972;2023-04-25T03:11:31;7.13;;;6.07;;
44746;SDS011;30472;49.490;10.972;2023-04-25T03:13:57;9.53;;;6.37;;
44746;SDS011;30472;49.490;10.972;2023-04-25T03:16:22;7.13;;;6.43;;
44746;SDS011;30472;49.490;10.972;2023-04-25T03:18:48;6.37;;;5.77;;
44746;SDS011;30472;49.490;10.972;2023-04-25T03:21:15;6.50;;;5.80;;
44746;SDS011;30472;49.490;10.972;2023-04-25T03:23:41;7.17;;;6.53;;
44746;SDS011;30472;49.490;10.972;2023-04-25T03:26:07;10.63;;;7.27;;
44746;SDS011;30472;49.490;10.972;2023-04-25T03:28:32;7.80;;;7.00;;
44746;SDS011;30472;49.490;10.972;2023-04-25T03:30:58;8.53;;;7.73;;
44746;SDS011;30472;49.490;10.972;2023-04-25T03:33:23;7.53;;;6.83;;
44746;SDS011;30472;49.490;10.972;2023-04-25T03:35:49;8.47;;;7.47;;
44746;SDS011;30472;49.490;10.972;2023-04-25T03:38:15;8.77;;;7.90;;
44746;SDS011;30472;49.490;10.972;2023-04-25T03:40:40;8.50;;;7.70;;
44746;SDS011;30472;49.490;10.972;2023-04-25T03:43:06;9.87;;;8.90;;
44746;SDS011;30472;49.490;10.972;2023-04-25T03:45:32;9.53;;;8.37;;
44746;SDS011;30472;49.490;10.972;2023-04-25T03:47:57;10.13;;;9.13;;
44746;SDS011;30472;49.490;10.972;2023-04-25T03:50:23;10.40;;;8.47;;
44746;SDS011;30472;49.490;10.972;2023-04-25T03:52:48;8.57;;;7.77;;
44746;SDS011;30472;49.490;10.972;2023-04-25T03:55:14;9.67;;;8.47;;
44746;SDS011;30472;49.490;10.972;2023-04-25T03:57:40;9.93;;;9.03;;
44746;SDS011;30472;49.490;10.972;2023-04-25T04:00:06;11.10;;;9.93;;
44746;SDS011;30472;49.490;10.972;2023-04-25T04:02:32;12.20;;;7.93;;
44746;SDS011;30472;49.490;10.972;2023-04-25T04:04:59;9.17;;;8.37;;
44746;SDS011;30472;49.490;10.972;2023-04-25T04:07:25;8.23;;;7.43;;
44746;SDS011;30472;49.490;10.972;2023-04-25T04:09:51;9.37;;;8.47;;
44746;SDS011;30472;49.490;10.972;2023-04-25T04:12:16;10.73;;;8.33;;
44746;SDS011;30472;49.490;10.972;2023-04-25T04:14:43;9.53;;;8.63;;
44746;SDS011;30472;49.490;10.972;2023-04-25T04:17:08;9.43;;;8.10;;
44746;SDS011;30472;49.490;10.972;2023-04-25T04:19:34;9.40;;;8.50;;
44746;SDS011;30472;49.490;10.972;2023-04-25T04:22:00;8.63;;;7.77;;
44746;SDS011;30472;49.490;10.972;2023-04-25T04:24:25;9.27;;;8.47;;
44746;SDS011;30472;49.490;10.972;2023-04-25T04:26:51;8.47;;;7.77;;
44746;SDS011;30472;49.490;10.972;2023-04-25T04:29:17;10.03;;;9.03;;
44746;SDS011;30472;49.490;10.972;2023-04-25T04:31:47;9.43;;;8.53;;
44746;SDS011;30472;49.490;10.972;2023-04-25T04:34:14;9.40;;;8.57;;
44746;SDS011;30472;49.490;10.972;2023-04-25T04:36:43;9.20;;;8.30;;
44746;SDS011;30472;49.490;10.972;2023-04-25T04:39:11;11.43;;;9.83;;
44746;SDS011;30472;49.490;10.972;2023-04-25T04:41:37;9.30;;;8.40;;
44746;SDS011;30472;49.490;10.972;2023-04-25T04:44:02;10.20;;;9.20;;
44746;SDS011;30472;49.490;10.972;2023-04-25T04:46:28;9.67;;;8.50;;
44746;SDS011;30472;49.490;10.972;2023-04-25T04:48:55;9.23;;;8.33;;
44746;SDS011;30472;49.490;10.972;2023-04-25T04:51:21;10.63;;;9.60;;
44746;SDS011;30472;49.490;10.972;2023-04-25T04:53:47;10.50;;;8.97;;
44746;SDS011;30472;49.490;10.972;2023-04-25T04:56:12;10.07;;;8.90;;
44746;SDS011;30472;49.490;10.972;2023-04-25T04:58:38;10.30;;;9.27;;
44746;SDS011;30472;49.490;10.972;2023-04-25T05:01:03;9.50;;;8.17;;
44746;SDS011;30472;49.490;10.972;2023-04-25T05:03:29;9.70;;;8.53;;
44746;SDS011;30472;49.490;10.972;2023-04-25T05:05:54;10.43;;;9.33;;
44746;SDS011;30472;49.490;10.972;2023-04-25T05:08:20;9.40;;;8.50;;
44746;SDS011;30472;49.490;10.972;2023-04-25T05:10:46;8.70;;;7.90;;
44746;SDS011;30472;49.490;10.972;2023-04-25T05:13:11;9.73;;;7.93;;
44746;SDS011;30472;49.490;10.972;2023-04-25T05:15:37;8.70;;;7.80;;
44746;SDS011;30472;49.490;10.972;2023-04-25T05:18:02;8.73;;;7.80;;
44746;SDS011;30472;49.490;10.972;2023-04-25T05:20:28;8.13;;;7.33;;
44746;SDS011;30472;49.490;10.972;2023-04-25T05:22:54;9.50;;;7.93;;
44746;SDS011;30472;49.490;10.972;2023-04-25T05:25:19;9.93;;;8.93;;
44746;SDS011;30472;49.490;10.972;2023-04-25T05:27:45;8.40;;;7.60;;
44746;SDS011;30472;49.490;10.972;2023-04-25T05:30:10;9.50;;;8.43;;
44746;SDS011;30472;49.490;10.972;2023-04-25T05:32:36;7.97;;;7.17;;
44746;SDS011;30472;49.490;10.972;2023-04-25T05:35:03;10.00;;;7.90;;
44746;SDS011;30472;49.490;10.972;2023-04-25T05:37:31;8.40;;;7.57;;
44746;SDS011;30472;49.490;10.972;2023-04-25T05:39:57;8.80;;;7.90;;
44746;SDS011;30472;49.490;10.972;2023-04-25T05:42:23;8.87;;;8.07;;
44746;SDS011;30472;49.490;10.972;2023-04-25T05:44:48;8.70;;;7.80;;
44746;SDS011;30472;49.490;10.972;2023-04-25T05:47:14;8.27;;;7.53;;
44746;SDS011;30472;49.490;10.972;2023-04-25T05:49:40;10.50;;;8.27;;
44746;SDS011;30472;49.490;10.972;2023-04-25T05:52:05;7.87;;;7.13;;
44746;SDS011;30472;49.490;10.972;2023-04-25T05:54:31;8.27;;;7.47;;
44746;SDS011;30472;49.490;10.972;2023-04-25T05:56:56;10.13;;;8.23;;
44746;SDS011;30472;49.490;10.972;2023-04-25T05:59:22;8.30;;;7.47;;
44746;SDS011;30472;49.490;10.972;2023-04-25T06:01:49;10.10;;;9.10;;
44746;SDS011;30472;49.490;10.972;2023-04-25T06:04:15;8.97;;;8.07;;
44746;SDS011;30472;49.490;10.972;2023-04-25T06:06:40;9.13;;;8.23;;
44746;SDS011;30472;49.490;10.972;2023-04-25T06:09:06;10.03;;;9.03;;
44746;SDS011;30472;49.490;10.972;2023-04-25T06:11:31;8.40;;;7.60;;
44746;SDS011;30472;49.490;10.972;2023-04-25T06:13:57;8.33;;;7.53;;
44746;SDS011;30472;49.490;10.972;2023-04-25T06:16:22;8.70;;;7.87;;
44746;SDS011;30472;49.490;10.972;2023-04-25T06:18:50;7.77;;;7.03;;
44746;SDS011;30472;49.490;10.972;2023-04-25T06:21:16;9.00;;;8.10;;
44746;SDS011;30472;49.490;10.972;2023-04-25T06:23:41;11.80;;;8.60;;
44746;SDS011;30472;49.490;10.972;2023-04-25T06:26:07;8.73;;;7.87;;
44746;SDS011;30472;49.490;10.972;2023-04-25T06:28:32;10.50;;;9.50;;
44746;SDS011;30472;49.490;10.972;2023-04-25T06:30:58;10.03;;;8.83;;
44746;SDS011;30472;49.490;10.972;2023-04-25T06:33:24;10.73;;;9.53;;
44746;SDS011;30472;49.490;10.972;2023-04-25T06:35:49;9.90;;;8.90;;
44746;SDS011;30472;49.490;10.972;2023-04-25T06:38:15;10.47;;;8.57;;
44746;SDS011;30472;49.490;10.972;2023-04-25T06:40:41;8.43;;;7.57;;
44746;SDS011;30472;49.490;10.972;2023-04-25T06:43:06;8.73;;;7.83;;
44746;SDS011;30472;49.490;10.972;2023-04-25T06:45:32;9.20;;;8.30;;
44746;SDS011;30472;49.490;10.972;2023-04-25T06:47:57;8.67;;;7.87;;
44746;SDS011;30472;49.490;10.972;2023-04-25T06:50:23;8.13;;;7.33;;
44746;SDS011;30472;49.490;10.972;2023-04-25T06:52:49;8.20;;;7.50;;
44746;SDS011;30472;49.490;10.972;2023-04-25T06:55:15;9.17;;;8.20;;
44746;SDS011;30472;49.490;10.972;2023-04-25T06:57:40;7.33;;;6.63;;
44746;SDS011;30472;49.490;10.972;2023-04-25T07:00:06;8.07;;;6.97;;
44746;SDS011;30472;49.490;10.972;2023-04-25T07:02:34;7.80;;;6.93;;
44746;SDS011;30472;49.490;10.972;2023-04-25T07:05:00;6.93;;;6.30;;
44746;SDS011;30472;49.490;10.972;2023-04-25T07:07:29;8.03;;;6.83;;
44746;SDS011;30472;49.490;10.972;2023-04-25T07:09:57;6.07;;;5.47;;
44746;SDS011;30472;49.490;10.972;2023-04-25T07:12:23;7.13;;;6.43;;
44746;SDS011;30472;49.490;10.972;2023-04-25T07:14:48;6.23;;;5.63;;
44746;SDS011;30472;49.490;10.972;2023-04-25T07:17:14;6.33;;;5.73;;
44746;SDS011;30472;49.490;10.972;2023-04-25T07:19:40;5.83;;;5.33;;
44746;SDS011;30472;49.490;10.972;2023-04-25T07:22:06;5.87;;;5.20;;
44746;SDS011;30472;49.490;10.972;2023-04-25T07:24:31;7.50;;;6.43;;
44746;SDS011;30472;49.490;10.972;2023-04-25T07:26:57;6.37;;;5.77;;
44746;SDS011;30472;49.490;10.972;2023-04-25T07:29:23;6.57;;;5.67;;
44746;SDS011;30472;49.490;10.972;2023-04-25T07:31:49;6.90;;;6.30;;
44746;SDS011;30472;49.490;10.972;2023-04-25T07:34:14;6.43;;;5.83;;
44746;SDS011;30472;49.490;10.972;2023-04-25T07:36:40;6.57;;;5.97;;
44746;SDS011;30472;49.490;10.972;2023-04-25T07:39:06;6.93;;;5.93;;
44746;SDS011;30472;49.490;10.972;2023-04-25T07:41:34;5.70;;;5.30;;
44746;SDS011;30472;49.490;10.972;2023-04-25T07:43:59;9.47;;;5.90;;
44746;SDS011;30472;49.490;10.972;2023-04-25T07:46:25;7.03;;;5.13;;
44746;SDS011;30472;49.490;10.972;2023-04-25T07:48:51;5.70;;;4.93;;
44746;SDS011;30472;49.490;10.972;2023-04-25T07:51:16;5.13;;;4.73;;
44746;SDS011;30472;49.490;10.972;2023-04-25T07:53:44;4.87;;;3.90;;
44746;SDS011;30472;49.490;10.972;2023-04-25T07:56:10;5.00;;;4.07;;
44746;SDS011;30472;49.490;10.972;2023-04-25T07:58:36;6.37;;;4.83;;
44746;SDS011;30472;49.490;10.972;2023-04-25T08:01:02;6.27;;;4.17;;
44746;SDS011;30472;49.490;10.972;2023-04-25T08:03:27;5.27;;;4.63;;
44746;SDS011;30472;49.490;10.972;2023-04-25T08:05:53;4.90;;;4.43;;
44746;SDS011;30472;49.490;10.972;2023-04-25T08:08:18;5.67;;;4.67;;
44746;SDS011;30472;49.490;10.972;2023-04-25T08:10:44;5.50;;;5.00;;
44746;SDS011;30472;49.490;10.972;2023-04-25T08:13:10;5.40;;;4.30;;
44746;SDS011;30472;49.490;10.972;2023-04-25T08:15:35;7.60;;;4.47;;
44746;SDS011;30472;49.490;10.972;2023-04-25T08:18:01;6.57;;;4.77;;
44746;SDS011;30472;49.490;10.972;2023-04-25T08:20:26;4.70;;;4.30;;
44746;SDS011;30472;49.490;10.972;2023-04-25T08:22:52;5.47;;;4.73;;
44746;SDS011;30472;49.490;10.972;2023-04-25T08:25:18;5.90;;;4.23;;
44746;SDS011;30472;49.490;10.972;2023-04-25T08:27:43;4.63;;;4.10;;
44746;SDS011;30472;49.490;10.972;2023-04-25T08:30:09;4.43;;;3.77;;
44746;SDS011;30472;49.490;10.972;2023-04-25T08:32:35;5.77;;;3.87;;
44746;SDS011;30472;49.490;10.972;2023-04-25T08:35:03;5.13;;;4.07;;
44746;SDS011;30472;49.490;10.972;2023-04-25T08:37:29;4.83;;;3.80;;
44746;SDS011;30472;49.490;10.972;2023-04-25T08:39:54;5.60;;;3.77;;
44746;SDS011;30472;49.490;10.972;2023-04-25T08:42:21;3.97;;;3.60;;
44746;SDS011;30472;49.490;10.972;2023-04-25T08:44:48;4.73;;;4.03;;
44746;SDS011;30472;49.490;10.972;2023-04-25T08:47:14;5.53;;;4.20;;
44746;SDS011;30472;49.490;10.972;2023-04-25T08:49:39;4.47;;;3.90;;
44746;SDS011;30472;49.490;10.972;2023-04-25T08:52:11;4.30;;;3.83;;
44746;SDS011;30472;49.490;10.972;2023-04-25T08:54:41;5.77;;;4.43;;
44746;SDS011;30472;49.490;10.972;2023-04-25T08:57:11;6.63;;;4.63;;
44746;SDS011;30472;49.490;10.972;2023-04-25T08:59:37;5.13;;;4.63;;
44746;SDS011;30472;49.490;10.972;2023-04-25T09:02:05;5.67;;;5.17;;
44746;SDS011;30472;49.490;10.972;2023-04-25T09:04:31;5.67;;;5.03;;
44746;SDS011;30472;49.490;10.972;2023-04-25T09:06:57;5.87;;;5.33;;
44746;SDS011;30472;49.490;10.972;2023-04-25T09:09:23;7.77;;;5.83;;
44746;SDS011;30472;49.490;10.972;2023-04-25T09:11:49;6.37;;;5.77;;
44746;SDS011;30472;49.490;10.972;2023-04-25T09:14:16;6.37;;;5.77;;
44746;SDS011;30472;49.490;10.972;2023-04-25T09:19:38;7.13;;;4.13;;
44746;SDS011;30472;49.490;10.972;2023-04-25T09:22:05;5.53;;;3.83;;
44746;SDS011;30472;49.490;10.972;2023-04-25T09:26:57;4.20;;;3.50;;
44746;SDS011;30472;49.490;10.972;2023-04-25T09:29:29;3.33;;;3.00;;
44746;SDS011;30472;49.490;10.972;2023-04-25T09:34:54;4.07;;;3.20;;
44746;SDS011;30472;49.490;10.972;2023-04-25T09:37:22;6.40;;;3.70;;
44746;SDS011;30472;49.490;10.972;2023-04-25T09:39:56;5.27;;;3.63;;
44746;SDS011;30472;49.490;10.972;2023-04-25T09:42:24;4.43;;;3.87;;
44746;SDS011;30472;49.490;10.972;2023-04-25T09:44:54;4.37;;;3.50;;
44746;SDS011;30472;49.490;10.972;2023-04-25T09:47:22;4.23;;;3.67;;
44746;SDS011;30472;49.490;10.972;2023-04-25T09:49:49;3.90;;;3.50;;
44746;SDS011;30472;49.490;10.972;2023-04-25T09:52:17;8.03;;;4.10;;
44746;SDS011;30472;49.490;10.972;2023-04-25T09:54:44;6.10;;;4.10;;
44746;SDS011;30472;49.490;10.972;2023-04-25T09:59:38;5.37;;;4.03;;
44746;SDS011;30472;49.490;10.972;2023-04-25T10:02:07;7.80;;;4.00;;
44746;SDS011;30472;49.490;10.972;2023-04-25T10:04:34;4.40;;;3.83;;
44746;SDS011;30472;49.490;10.972;2023-04-25T10:07:01;6.73;;;4.10;;
44746;SDS011;30472;49.490;10.972;2023-04-25T10:09:30;3.70;;;3.40;;
44746;SDS011;30472;49.490;10.972;2023-04-25T10:12:00;5.50;;;3.37;;
44746;SDS011;30472;49.490;10.972;2023-04-25T10:14:26;4.27;;;3.47;;
44746;SDS011;30472;49.490;10.972;2023-04-25T10:16:53;5.03;;;2.70;;
44746;SDS011;30472;49.490;10.972;2023-04-25T10:19:28;3.00;;;2.40;;
44746;SDS011;30472;49.490;10.972;2023-04-25T10:22:14;4.87;;;2.23;;
44746;SDS011;30472;49.490;10.972;2023-04-25T10:24:46;3.27;;;2.20;;
44746;SDS011;30472;49.490;10.972;2023-04-25T10:27:11;4.77;;;2.40;;
44746;SDS011;30472;49.490;10.972;2023-04-25T10:29:37;6.83;;;3.00;;
44746;SDS011;30472;49.490;10.972;2023-04-25T10:32:03;3.57;;;2.87;;
44746;SDS011;30472;49.490;10.972;2023-04-25T10:34:39;3.30;;;2.93;;
44746;SDS011;30472;49.490;10.972;2023-04-25T10:37:08;2.73;;;2.50;;
44746;SDS011;30472;49.490;10.972;2023-04-25T10:39:35;5.27;;;2.63;;
44746;SDS011;30472;49.490;10.972;2023-04-25T10:42:02;3.37;;;2.03;;
44746;SDS011;30472;49.490;10.972;2023-04-25T10:44:28;3.93;;;2.17;;
44746;SDS011;30472;49.490;10.972;2023-04-25T10:46:55;5.73;;;1.90;;
44746;SDS011;30472;49.490;10.972;2023-04-25T10:54:48;3.30;;;1.67;;
44746;SDS011;30472;49.490;10.972;2023-04-25T11:02:44;3.10;;;1.80;;
44746;SDS011;30472;49.490;10.972;2023-04-25T11:08:06;2.33;;;1.53;;
44746;SDS011;30472;49.490;10.972;2023-04-25T11:10:36;3.10;;;1.60;;
44746;SDS011;30472;49.490;10.972;2023-04-25T11:13:02;3.70;;;1.40;;
44746;SDS011;30472;49.490;10.972;2023-04-25T11:15:28;2.90;;;1.60;;
44746;SDS011;30472;49.490;10.972;2023-04-25T11:17:54;1.67;;;1.27;;
44746;SDS011;30472;49.490;10.972;2023-04-25T11:20:21;3.80;;;1.70;;
44746;SDS011;30472;49.490;10.972;2023-04-25T11:22:47;2.10;;;1.30;;
44746;SDS011;30472;49.490;10.972;2023-04-25T11:25:13;1.33;;;1.23;;
44746;SDS011;30472;49.490;10.972;2023-04-25T11:30:16;1.50;;;1.40;;
44746;SDS011;30472;49.490;10.972;2023-04-25T11:32:43;2.33;;;1.40;;
44746;SDS011;30472;49.490;10.972;2023-04-25T11:35:09;1.97;;;1.37;;
44746;SDS011;30472;49.490;10.972;2023-04-25T11:37:35;1.63;;;1.50;;
44746;SDS011;30472;49.490;10.972;2023-04-25T11:40:02;3.57;;;1.50;;
44746;SDS011;30472;49.490;10.972;2023-04-25T11:42:28;1.23;;;1.13;;
44746;SDS011;30472;49.490;10.972;2023-04-25T11:44:55;2.97;;;1.20;;
44746;SDS011;30472;49.490;10.972;2023-04-25T11:47:26;1.63;;;1.20;;
44746;SDS011;30472;49.490;10.972;2023-04-25T11:49:53;2.67;;;1.50;;
44746;SDS011;30472;49.490;10.972;2023-04-25T11:52:19;1.97;;;1.07;;
44746;SDS011;30472;49.490;10.972;2023-04-25T11:54:44;1.43;;;1.33;;
44746;SDS011;30472;49.490;10.972;2023-04-25T11:57:11;1.83;;;1.27;;
44746;SDS011;30472;49.490;10.972;2023-04-25T11:59:36;2.70;;;1.30;;
44746;SDS011;30472;49.490;10.972;2023-04-25T12:02:02;1.67;;;1.20;;
44746;SDS011;30472;49.490;10.972;2023-04-25T12:04:29;1.97;;;1.40;;
44746;SDS011;30472;49.490;10.972;2023-04-25T12:06:56;2.17;;;1.60;;
44746;SDS011;30472;49.490;10.972;2023-04-25T12:09:28;3.83;;;1.60;;
44746;SDS011;30472;49.490;10.972;2023-04-25T12:11:56;2.17;;;1.57;;
44746;SDS011;30472;49.490;10.972;2023-04-25T12:14:23;2.60;;;1.40;;
44746;SDS011;30472;49.490;10.972;2023-04-25T12:16:52;1.43;;;1.20;;
44746;SDS011;30472;49.490;10.972;2023-04-25T12:19:19;1.50;;;1.40;;
44746;SDS011;30472;49.490;10.972;2023-04-25T12:21:45;2.23;;;1.33;;
44746;SDS011;30472;49.490;10.972;2023-04-25T12:24:15;1.27;;;1.10;;
44746;SDS011;30472;49.490;10.972;2023-04-25T12:27:00;1.60;;;1.50;;
44746;SDS011;30472;49.490;10.972;2023-04-25T12:29:28;1.57;;;1.47;;
44746;SDS011;30472;49.490;10.972;2023-04-25T12:31:55;2.40;;;1.73;;
44746;SDS011;30472;49.490;10.972;2023-04-25T12:34:21;1.33;;;1.23;;
44746;SDS011;30472;49.490;10.972;2023-04-25T12:36:47;1.43;;;1.33;;
44746;SDS011;30472;49.490;10.972;2023-04-25T12:39:15;3.57;;;1.80;;
44746;SDS011;30472;49.490;10.972;2023-04-25T12:41:52;2.23;;;1.63;;
44746;SDS011;30472;49.490;10.972;2023-04-25T12:44:21;2.63;;;1.80;;
44746;SDS011;30472;49.490;10.972;2023-04-25T12:46:47;2.43;;;1.73;;
44746;SDS011;30472;49.490;10.972;2023-04-25T12:49:13;2.67;;;1.83;;
44746;SDS011;30472;49.490;10.972;2023-04-25T12:51:38;3.80;;;1.90;;
44746;SDS011;30472;49.490;10.972;2023-04-25T12:54:05;2.33;;;1.50;;
44746;SDS011;30472;49.490;10.972;2023-04-25T12:56:34;4.80;;;1.70;;
44746;SDS011;30472;49.490;10.972;2023-04-25T12:59:00;2.00;;;1.77;;
44746;SDS011;30472;49.490;10.972;2023-04-25T13:01:28;3.50;;;2.07;;
44746;SDS011;30472;49.490;10.972;2023-04-25T13:03:54;1.90;;;1.70;;
44746;SDS011;30472;49.490;10.972;2023-04-25T13:06:19;4.10;;;1.77;;
44746;SDS011;30472;49.490;10.972;2023-04-25T13:08:46;1.97;;;1.80;;
44746;SDS011;30472;49.490;10.972;2023-04-25T13:11:11;2.60;;;2.17;;
44746;SDS011;30472;49.490;10.972;2023-04-25T13:13:37;2.70;;;2.00;;
44746;SDS011;30472;49.490;10.972;2023-04-25T13:16:04;2.80;;;2.17;;
44746;SDS011;30472;49.490;10.972;2023-04-25T13:18:32;2.40;;;2.00;;
44746;SDS011;30472;49.490;10.972;2023-04-25T13:20:58;2.43;;;1.93;;
44746;SDS011;30472;49.490;10.972;2023-04-25T13:23:25;1.90;;;1.73;;
44746;SDS011;30472;49.490;10.972;2023-04-25T13:25:51;2.17;;;1.50;;
44746;SDS011;30472;49.490;10.972;2023-04-25T13:28:17;2.57;;;2.10;;
44746;SDS011;30472;49.490;10.972;2023-04-25T13:30:43;2.67;;;2.27;;
44746;SDS011;30472;49.490;10.972;2023-04-25T13:33:09;3.03;;;2.30;;
44746;SDS011;30472;49.490;10.972;2023-04-25T13:35:35;3.00;;;2.20;;
44746;SDS011;30472;49.490;10.972;2023-04-25T13:38:02;4.90;;;2.30;;
44746;SDS011;30472;49.490;10.972;2023-04-25T13:40:28;3.77;;;2.70;;
44746;SDS011;30472;49.490;10.972;2023-04-25T13:42:54;3.93;;;2.50;;
44746;SDS011;30472;49.490;10.972;2023-04-25T13:45:20;2.70;;;2.20;;
44746;SDS011;30472;49.490;10.972;2023-04-25T13:47:46;2.13;;;1.90;;
44746;SDS011;30472;49.490;10.972;2023-04-25T13:50:12;5.03;;;2.10;;
44746;SDS011;30472;49.490;10.972;2023-04-25T13:52:38;2.87;;;2.30;;
44746;SDS011;30472;49.490;10.972;2023-04-25T13:55:04;3.43;;;2.63;;
44746;SDS011;30472;49.490;10.972;2023-04-25T13:57:32;2.50;;;2.30;;
44746;SDS011;30472;49.490;10.972;2023-04-25T13:59:58;5.80;;;2.97;;
44746;SDS011;30472;49.490;10.972;2023-04-25T14:02:24;3.57;;;2.73;;
44746;SDS011;30472;49.490;10.972;2023-04-25T14:04:50;5.57;;;3.00;;
44746;SDS011;30472;49.490;10.972;2023-04-25T14:07:16;4.07;;;2.60;;
44746;SDS011;30472;49.490;10.972;2023-04-25T14:09:43;4.00;;;2.97;;
44746;SDS011;30472;49.490;10.972;2023-04-25T14:12:08;2.87;;;2.43;;
44746;SDS011;30472;49.490;10.972;2023-04-25T14:14:34;3.90;;;2.47;;
44746;SDS011;30472;49.490;10.972;2023-04-25T14:17:00;3.37;;;2.90;;
44746;SDS011;30472;49.490;10.972;2023-04-25T14:19:25;3.50;;;2.93;;
44746;SDS011;30472;49.490;10.972;2023-04-25T14:21:51;2.73;;;2.53;;
44746;SDS011;30472;49.490;10.972;2023-04-25T14:24:17;3.20;;;2.70;;
44746;SDS011;30472;49.490;10.972;2023-04-25T14:26:43;7.20;;;3.63;;
44746;SDS011;30472;49.490;10.972;2023-04-25T14:29:09;4.37;;;3.40;;
44746;SDS011;30472;49.490;10.972;2023-04-25T14:31:37;5.30;;;3.67;;
44746;SDS011;30472;49.490;10.972;2023-04-25T14:34:03;3.43;;;3.13;;
44746;SDS011;30472;49.490;10.972;2023-04-25T14:36:38;5.80;;;3.03;;
44746;SDS011;30472;49.490;10.972;2023-04-25T14:39:04;3.70;;;3.10;;
44746;SDS011;30472;49.490;10.972;2023-04-25T14:41:33;3.97;;;3.40;;
44746;SDS011;30472;49.490;10.972;2023-04-25T14:43:59;4.03;;;3.60;;
44746;SDS011;30472;49.490;10.972;2023-04-25T14:46:24;6.73;;;3.83;;
44746;SDS011;30472;49.490;10.972;2023-04-25T14:48:50;6.80;;;3.93;;
44746;SDS011;30472;49.490;10.972;2023-04-25T14:51:16;3.60;;;3.17;;
44746;SDS011;30472;49.490;10.972;2023-04-25T14:53:41;4.63;;;3.00;;
44746;SDS011;30472;49.490;10.972;2023-04-25T14:56:07;5.60;;;4.20;;